Time;durP1;ratioP1;P1;durP2;ratioP2;P2;SDS_P1;SDS_P2;PMS_P1;PMS_P2;Temp;Humidity;BMP_temperature;BMP_pressure;BME280_temperature;BME280_humidity;BME280_pressure;Samples;Min_cycle;Max_cycle;Signal;HPM_P1;HPM_P2
2024/02/11 00:04:02;;;;;;;2.55;2.05;;;;;;;15.27;58.23;98464.97;10369254;28;20117;-61
2024/02/11 00:09:04;;;;;;;3.08;1.88;;;;;;;15.27;57.45;98463.06;10382485;28;20050;-62
2024/02/11 00:14:05;;;;;;;3.58;2.60;;;;;;;15.26;57.81;98471.41;10385235;28;20025;-61
2024/02/11 00:19:07;;;;;;;3.40;2.53;;;;;;;15.26;58.02;98448.16;10409943;28;20068;-62
2024/02/11 00:24:07;;;;;;;2.83;1.80;;;;;;;15.26;57.80;98450.81;10410363;28;20112;-61
2024/02/11 00:29:09;;;;;;;2.55;2.05;;;;;;;15.25;58.33;98446.59;10410452;28;20029;-61
2024/02/11 00:34:10;;;;;;;2.70;2.08;;;;;;;15.24;58.31;98450.38;10374782;28;20389;-62
2024/02/11 00:39:10;;;;;;;3.42;2.10;;;;;;;15.25;57.53;98451.16;10367173;28;20026;-62
2024/02/11 00:44:11;;;;;;;2.72;1.92;;;;;;;15.24;58.17;98454.94;10368755;28;20029;-62
2024/02/11 00:49:12;;;;;;;4.03;2.00;;;;;;;15.23;58.64;98453.38;10367848;28;20466;-62
2024/02/11 00:54:13;;;;;;;2.92;2.10;;;;;;;15.23;57.52;98445.38;10366332;28;20022;-61
2024/02/11 00:59:14;;;;;;;2.25;1.70;;;;;;;15.22;57.34;98441.94;10366555;28;20030;-61
2024/02/11 01:04:15;;;;;;;2.75;1.88;;;;;;;15.21;58.37;98451.81;10366755;28;20033;-62
2024/02/11 01:09:15;;;;;;;2.75;2.00;;;;;;;15.21;57.88;98443.81;10380068;28;20369;-61
2024/02/11 01:14:18;;;;;;;2.75;1.92;;;;;;;15.21;58.09;98440.38;10367043;28;20030;-62
2024/02/11 01:19:19;;;;;;;3.10;1.98;;;;;;;15.20;57.31;98444.16;10366912;28;20066;-61
2024/02/11 01:24:19;;;;;;;3.10;2.05;;;;;;;15.20;57.72;98441.47;10367099;28;20057;-61
2024/02/11 01:29:20;;;;;;;2.38;1.50;;;;;;;15.19;58.51;98439.91;10366139;28;20040;-61
2024/02/11 01:34:20;;;;;;;2.23;1.77;;;;;;;15.20;57.73;98444.16;10403595;28;20047;-61
2024/02/11 01:39:20;;;;;;;2.87;1.60;;;;;;;15.19;57.60;98440.69;10395503;28;20295;-61
2024/02/11 01:44:21;;;;;;;2.47;1.60;;;;;;;15.18;57.91;98447.16;10366539;28;20291;-62
2024/02/11 01:49:22;;;;;;;3.50;2.03;;;;;;;15.18;57.81;98449.81;10365734;28;20288;-61
2024/02/11 01:54:22;;;;;;;2.67;1.90;;;;;;;15.19;58.23;98450.59;10364380;28;20033;-60
2024/02/11 01:59:23;;;;;;;2.08;1.58;;;;;;;15.18;57.33;98462.38;10364708;28;20029;-61
2024/02/11 02:04:24;;;;;;;2.85;1.92;;;;;;;15.17;58.37;98453.59;10364938;28;20029;-61
2024/02/11 02:09:25;;;;;;;3.35;2.45;;;;;;;15.18;57.30;98446.38;10382374;28;20067;-61
2024/02/11 02:14:25;;;;;;;2.42;1.60;;;;;;;15.15;57.23;98426.47;10406229;28;20036;-61
2024/02/11 02:19:25;;;;;;;1.70;1.30;;;;;;;15.16;58.00;98421.91;10403803;28;20018;-62
2024/02/11 02:24:26;;;;;;;1.90;1.33;;;;;;;15.15;57.95;98414.97;10371336;28;20790;-62
2024/02/11 02:29:26;;;;;;;2.30;1.80;;;;;;;15.14;58.50;98411.53;10363729;28;20041;-61
2024/02/11 02:34:28;;;;;;;1.93;1.50;;;;;;;15.14;57.20;98410.75;10365534;28;20752;-62
2024/02/11 02:39:28;;;;;;;3.08;1.80;;;;;;;15.13;58.28;98423.31;10364415;28;20268;-61
2024/02/11 02:44:30;;;;;;;2.13;1.40;;;;;;;15.13;58.44;98420.63;10364446;28;20041;-62
2024/02/11 02:49:32;;;;;;;2.53;2.10;;;;;;;15.12;58.01;98411.06;10363164;28;20288;-61
2024/02/11 02:54:33;;;;;;;2.50;1.77;;;;;;;15.11;58.57;98409.53;10380424;28;20037;-61
2024/02/11 02:59:33;;;;;;;1.77;1.40;;;;;;;15.12;57.83;98415.63;10356541;28;20716;-61
2024/02/11 03:04:33;;;;;;;2.97;1.47;;;;;;;15.10;57.62;98405.28;10353821;28;20033;-61
2024/02/11 03:09:34;;;;;;;2.60;2.00;;;;;;;15.10;58.31;98402.63;10382430;28;20306;-61
2024/02/11 03:14:34;;;;;;;2.20;1.48;;;;;;;15.10;57.83;98399.16;10405125;28;20823;-61
2024/02/11 03:19:35;;;;;;;1.88;1.50;;;;;;;15.10;57.21;98401.84;10404717;28;20033;-61
2024/02/11 03:24:37;;;;;;;3.13;2.03;;;;;;;15.09;58.32;98400.28;10404950;28;20025;-62
2024/02/11 03:29:37;;;;;;;2.38;1.55;;;;;;;15.09;57.25;98392.28;10407318;28;20092;-62
2024/02/11 03:34:38;;;;;;;1.40;1.20;;;;;;;15.08;57.18;98391.50;10373113;28;20092;-61
2024/02/11 03:39:38;;;;;;;2.07;1.50;;;;;;;15.08;57.68;98399.50;10370466;28;20280;-61
2024/02/11 03:44:38;;;;;;;1.93;1.50;;;;;;;15.08;57.44;98396.06;10370578;28;20284;-61
2024/02/11 03:49:39;;;;;;;1.60;1.30;;;;;;;15.08;57.58;98404.06;10370118;28;20276;-61
2024/02/11 03:54:39;;;;;;;2.73;1.47;;;;;;;15.06;57.99;98400.94;10370226;28;20284;-61
2024/02/11 03:59:40;;;;;;;2.65;1.60;;;;;;;15.07;58.24;98405.19;10369736;28;20272;-61
2024/02/11 04:04:40;;;;;;;1.55;1.08;;;;;;;15.06;57.68;98411.63;10369806;28;20064;-61
2024/02/11 04:09:41;;;;;;;2.93;1.77;;;;;;;15.06;58.01;98416.97;10382821;28;20128;-61
2024/02/11 04:14:41;;;;;;;2.30;1.60;;;;;;;15.05;57.55;98412.72;10369261;28;20320;-61
2024/02/11 04:19:44;;;;;;;2.50;1.65;;;;;;;15.05;57.18;98413.50;10367854;28;20030;-62
2024/02/11 04:24:45;;;;;;;3.03;1.58;;;;;;;15.04;58.42;98411.94;10367976;28;20088;-61
2024/02/11 04:29:46;;;;;;;3.55;2.05;;;;;;;15.03;58.03;98415.69;10382258;28;20022;-62
2024/02/11 04:34:46;;;;;;;2.63;1.90;;;;;;;15.04;57.43;98413.84;10383256;28;20088;-61
2024/02/11 04:39:47;;;;;;;2.28;1.40;;;;;;;15.03;57.83;98410.38;10409083;28;20810;-62
2024/02/11 04:44:47;;;;;;;2.60;1.80;;;;;;;15.02;57.97;98408.03;10410129;28;20496;-62
2024/02/11 04:49:48;;;;;;;1.90;1.35;;;;;;;15.01;58.03;98415.25;10407837;28;20516;-61
2024/02/11 04:54:48;;;;;;;2.20;1.23;;;;;;;15.01;57.96;98411.81;10375467;28;20029;-61
2024/02/11 04:59:49;;;;;;;2.27;1.50;;;;;;;15.02;57.49;98413.38;10367897;28;20741;-61
2024/02/11 05:04:50;;;;;;;1.98;1.20;;;;;;;15.01;58.40;98423.25;10379330;28;20283;-61
2024/02/11 05:09:50;;;;;;;2.45;1.60;;;;;;;15.00;57.70;98424.38;10391801;28;20523;-61
2024/02/11 05:14:51;;;;;;;2.83;1.60;;;;;;;14.99;57.88;98430.81;10367517;28;20035;-61
2024/02/11 05:19:51;;;;;;;1.83;1.45;;;;;;;15.00;57.51;98431.59;10380504;28;20272;-62
2024/02/11 05:24:52;;;;;;;2.53;1.60;;;;;;;14.99;57.22;98433.47;10406238;28;20061;-61
2024/02/11 05:29:54;;;;;;;1.88;1.40;;;;;;;14.99;57.47;98438.03;10407204;28;20794;-61
2024/02/11 05:34:57;;;;;;;2.63;1.58;;;;;;;14.97;57.63;98446.38;10365353;28;20030;-62
2024/02/11 05:39:58;;;;;;;1.88;1.10;;;;;;;14.97;57.92;98441.03;10366200;28;20076;-62
2024/02/11 05:44:59;;;;;;;2.38;1.55;;;;;;;14.98;57.34;98447.16;10383247;28;20041;-61
2024/02/11 05:49:59;;;;;;;1.70;1.37;;;;;;;14.97;57.67;98453.59;10406244;28;20025;-62
2024/02/11 05:55:00;;;;;;;1.58;1.25;;;;;;;14.97;58.39;98449.03;10406382;28;20302;-60
2024/02/11 06:00:01;;;;;;;1.73;1.33;;;;;;;14.97;57.31;98453.59;10406837;28;20029;-62
2024/02/11 06:05:02;;;;;;;2.60;1.80;;;;;;;14.96;57.77;98444.81;10405288;28;20029;-62
2024/02/11 06:10:03;;;;;;;2.47;1.63;;;;;;;14.96;57.36;98452.03;10394837;28;20795;-62
2024/02/11 06:15:07;;;;;;;2.25;1.40;;;;;;;14.95;57.55;98455.81;10365056;28;20050;-61
2024/02/11 06:20:18;;;;;;;1.48;1.25;;;;;;;14.94;57.29;98460.38;10363763;28;20033;-62
2024/02/11 06:25:20;;;;;;;1.38;0.90;;;;;;;14.94;58.34;98472.94;10363642;28;20029;-62
2024/02/11 06:30:21;;;;;;;1.83;1.20;;;;;;;14.94;57.90;98478.28;10358231;28;20493;-62
2024/02/11 06:35:21;;;;;;;1.92;1.30;;;;;;;14.94;58.12;98491.63;10390805;28;20025;-61
2024/02/11 06:40:28;;;;;;;1.80;1.23;;;;;;;14.94;58.08;98504.97;10404377;28;20021;-61
2024/02/11 06:45:28;;;;;;;2.20;1.10;;;;;;;14.91;58.41;98517.81;10405745;28;20056;-62
2024/02/11 06:50:29;;;;;;;1.92;1.20;;;;;;;14.91;57.70;98536.50;10405145;28;20068;-61
2024/02/11 06:55:29;;;;;;;2.22;1.25;;;;;;;14.91;58.15;98549.06;10367994;28;20485;-61
2024/02/11 07:00:30;;;;;;;2.20;1.33;;;;;;;14.90;58.45;98547.50;10364325;28;20088;-61
2024/02/11 07:05:31;;;;;;;1.77;1.02;;;;;;;14.91;57.65;98571.19;10371563;28;20034;-61
2024/02/11 07:10:31;;;;;;;1.63;1.30;;;;;;;14.89;57.93;98581.41;10398076;28;20397;-61
2024/02/11 07:15:33;;;;;;;1.83;1.48;;;;;;;14.89;57.17;98596.63;10371457;28;20030;-60
2024/02/11 07:20:34;;;;;;;2.33;1.60;;;;;;;14.89;58.41;98612.63;10370230;28;20443;-62
2024/02/11 07:25:38;;;;;;;1.60;1.17;;;;;;;14.89;58.30;98620.66;10367845;28;20028;-62
2024/02/11 07:30:39;;;;;;;2.95;1.20;;;;;;;14.86;58.08;98627.41;10387107;28;20112;-62
2024/02/11 07:35:40;;;;;;;1.83;1.30;;;;;;;14.87;57.71;98636.97;10385990;28;20022;-62
2024/02/11 07:40:41;;;;;;;2.47;1.50;;;;;;;14.87;58.27;98650.31;10372980;28;20037;-61
2024/02/11 07:45:42;;;;;;;2.80;1.30;;;;;;;14.86;57.72;98662.09;10371678;28;20655;-61
2024/02/11 07:50:43;;;;;;;3.13;1.65;;;;;;;14.86;57.71;98688.00;10372917;28;20025;-61
2024/02/11 07:55:43;;;;;;;1.88;1.33;;;;;;;14.86;57.99;98699.44;10371899;28;20045;-62
2024/02/11 08:00:44;;;;;;;1.85;1.30;;;;;;;14.85;57.45;98705.88;10371029;28;20052;-62
2024/02/11 08:05:44;;;;;;;1.75;1.33;;;;;;;14.84;57.59;98717.66;10370486;28;20018;-61
2024/02/11 08:10:45;;;;;;;2.67;1.33;;;;;;;14.85;57.84;98721.13;10396239;28;20053;-62
2024/02/11 08:15:46;;;;;;;2.25;1.40;;;;;;;14.83;57.67;98721.44;10370819;28;20037;-62
2024/02/11 08:20:47;;;;;;;2.60;1.67;;;;;;;14.83;58.24;98718.78;10371558;28;20032;-62
2024/02/11 08:25:47;;;;;;;1.80;1.00;;;;;;;14.83;57.74;98732.13;10371538;28;20018;-61
2024/02/11 08:30:48;;;;;;;2.17;1.40;;;;;;;14.83;57.91;98732.13;10387102;28;20291;-61
2024/02/11 08:35:48;;;;;;;2.30;1.42;;;;;;;14.82;58.19;98738.56;10380346;28;20339;-62
2024/02/11 08:40:48;;;;;;;4.37;1.60;;;;;;;14.82;57.47;98756.44;10369405;28;20021;-61
2024/02/11 08:45:49;;;;;;;3.47;2.05;;;;;;;14.81;58.04;98758.34;10370303;28;20280;-61
2024/02/11 08:50:50;;;;;;;4.35;2.30;;;;;;;14.81;57.92;98771.66;10370354;28;20057;-62
2024/02/11 08:55:52;;;;;;;2.63;1.57;;;;;;;14.81;57.64;98776.22;10370364;28;20075;-62
2024/02/11 09:00:53;;;;;;;2.90;1.70;;;;;;;14.81;58.34;98781.56;10368663;28;20272;-61
2024/02/11 09:05:55;;;;;;;5.00;1.65;;;;;;;14.81;57.65;98781.56;10369617;28;20365;-62
2024/02/11 09:10:57;;;;;;;2.50;2.30;;;;;;;14.80;57.52;98780.78;10380909;28;20065;-61
2024/02/11 09:15:57;;;;;;;2.78;1.88;;;;;;;14.80;58.30;98780.78;10367706;28;20121;-61
2024/02/11 09:20:58;;;;;;;2.97;1.60;;;;;;;14.80;58.33;98785.31;10369128;28;20558;-61
2024/02/11 09:25:59;;;;;;;2.42;1.55;;;;;;;14.80;57.27;98793.31;10367651;28;20500;-61
2024/02/11 09:31:00;;;;;;;1.88;1.25;;;;;;;14.79;58.64;98799.75;10377556;28;20026;-62
2024/02/11 09:36:03;;;;;;;3.83;1.50;;;;;;;14.79;57.75;98800.53;10409222;28;20041;-61
2024/02/11 09:41:05;;;;;;;2.60;1.48;;;;;;;14.79;57.57;98810.41;10409322;28;20021;-62
2024/02/11 09:46:07;;;;;;;2.25;1.42;;;;;;;14.79;58.42;98811.19;10407268;28;20104;-61
2024/02/11 09:51:08;;;;;;;3.65;1.60;;;;;;;14.77;58.10;98813.41;10407990;28;20530;-62
2024/02/11 09:56:08;;;;;;;2.03;1.40;;;;;;;14.78;58.09;98817.63;10407094;28;20041;-62
2024/02/11 10:01:08;;;;;;;2.30;1.70;;;;;;;14.78;57.72;98814.97;10408593;28;20025;-61
2024/02/11 10:06:11;;;;;;;2.10;1.40;;;;;;;14.78;58.49;98822.19;10406939;28;20682;-62
2024/02/11 10:11:15;;;;;;;2.67;1.70;;;;;;;14.78;57.66;98828.31;10387890;28;20289;-62
2024/02/11 10:16:16;;;;;;;2.25;1.60;;;;;;;14.77;57.43;98837.41;10365502;28;20060;-62
2024/02/11 10:21:18;;;;;;;2.30;1.42;;;;;;;14.77;58.28;98845.41;10367523;28;20025;-61
2024/02/11 10:26:18;;;;;;;2.40;1.30;;;;;;;14.77;57.56;98840.09;10365522;28;20029;-62
2024/02/11 10:31:19;;;;;;;2.65;1.42;;;;;;;14.77;57.54;98850.75;10366340;28;20474;-62
2024/02/11 10:36:23;;;;;;;3.03;1.58;;;;;;;14.76;57.41;98859.84;10378982;28;20041;-61
2024/02/11 10:41:23;;;;;;;4.20;2.03;;;;;;;14.76;57.71;98862.53;10373935;28;20061;-62
2024/02/11 10:46:26;;;;;;;3.10;1.88;;;;;;;14.77;57.51;98873.97;10373875;28;20508;-61
2024/02/11 10:51:32;;;;;;;3.20;1.77;;;;;;;14.77;58.38;98868.66;10375049;28;20025;-61
2024/02/11 10:56:34;;;;;;;2.97;2.13;;;;;;;14.76;58.66;98869.75;10391728;28;20022;-61
2024/02/11 11:01:38;;;;;;;3.22;1.92;;;;;;;14.76;57.54;98878.53;10414602;28;20025;-61
2024/02/11 11:06:40;;;;;;;3.50;2.25;;;;;;;14.75;57.91;98889.53;10415399;28;20061;-62
2024/02/11 11:11:40;;;;;;;3.33;1.92;;;;;;;14.75;58.23;98884.19;10389521;28;20036;-62
2024/02/11 11:16:41;;;;;;;2.80;1.67;;;;;;;14.74;57.75;98875.41;10373610;28;20045;-62
2024/02/11 11:21:51;;;;;;;3.45;2.17;;;;;;;14.74;58.31;98877.28;10374019;28;20041;-61
2024/02/11 11:26:53;;;;;;;2.97;1.60;;;;;;;14.74;58.11;98887.97;10373842;28;20025;-60
2024/02/11 11:31:59;;;;;;;6.32;2.40;;;;;;;14.74;57.41;98887.97;10373048;28;20412;-61
2024/02/11 11:37:15;;;;;;;3.47;2.17;;;;;;;14.73;58.71;98881.84;10371389;28;20061;-61
2024/02/11 11:42:19;;;;;;;2.85;1.98;;;;;;;14.73;57.93;98886.38;10372031;28;20076;-61
2024/02/11 11:47:20;;;;;;;2.30;1.95;;;;;;;14.73;58.21;98871.16;10370916;28;20036;-61
2024/02/11 11:52:21;;;;;;;4.25;1.90;;;;;;;14.73;58.75;98870.38;10370517;28;20022;-61
2024/02/11 11:57:21;;;;;;;3.63;1.93;;;;;;;14.73;58.17;98881.84;10372191;28;20484;-61
2024/02/11 12:02:21;;;;;;;3.72;2.45;;;;;;;14.73;58.07;98873.06;10371175;28;20276;-61
2024/02/11 12:07:22;;;;;;;3.72;2.25;;;;;;;14.71;57.95;98865.38;10373829;28;20077;-62
2024/02/11 12:12:22;;;;;;;2.70;2.05;;;;;;;14.72;58.54;98874.16;10370185;28;20037;-61
2024/02/11 12:17:23;;;;;;;4.23;2.20;;;;;;;14.71;58.08;98867.25;10370159;28;20075;-61
2024/02/11 12:22:23;;;;;;;3.57;2.57;;;;;;;14.70;58.24;98877.13;10371557;28;20334;-61
2024/02/11 12:27:23;;;;;;;4.78;2.20;;;;;;;14.70;57.79;98879.81;10369790;28;20350;-61
2024/02/11 12:32:25;;;;;;;4.00;2.10;;;;;;;14.71;57.68;98885.91;10370284;28;20041;-61
2024/02/11 12:37:26;;;;;;;4.07;2.65;;;;;;;14.69;58.08;98891.56;10369381;28;20311;-62
2024/02/11 12:42:26;;;;;;;4.20;2.00;;;;;;;14.69;58.08;98901.47;10371484;28;20018;-62
2024/02/11 12:47:27;;;;;;;3.03;2.05;;;;;;;14.68;58.18;98911.34;10366074;28;20429;-61
2024/02/11 12:52:29;;;;;;;3.15;2.10;;;;;;;14.69;57.96;98899.56;10370358;28;20034;-61
2024/02/11 12:57:29;;;;;;;3.50;2.15;;;;;;;14.68;57.90;98905.19;10370430;28;20033;-61
2024/02/11 13:02:29;;;;;;;4.37;1.80;;;;;;;14.67;58.13;98909.75;10410555;28;20040;-61
2024/02/11 13:07:30;;;;;;;4.10;2.07;;;;;;;14.69;58.30;98917.47;10408970;28;20292;-62
2024/02/11 13:12:36;;;;;;;3.67;2.30;;;;;;;14.68;58.83;98907.88;10379426;28;20284;-61
2024/02/11 13:17:37;;;;;;;3.65;2.75;;;;;;;14.67;57.66;98907.09;10369110;28;20480;-62
2024/02/11 13:22:39;;;;;;;4.25;2.33;;;;;;;14.68;57.92;98915.88;10368095;28;20026;-62
2024/02/11 13:27:40;;;;;;;3.45;2.42;;;;;;;14.66;58.31;98921.53;10368721;28;20657;-61
2024/02/11 13:32:40;;;;;;;2.90;2.20;;;;;;;14.67;58.68;98919.63;10368607;28;20933;-62
2024/02/11 13:37:41;;;;;;;3.80;2.43;;;;;;;14.67;57.47;98920.41;10367155;28;20160;-61
2024/02/11 13:42:42;;;;;;;4.60;2.63;;;;;;;14.67;57.89;98923.09;10380528;28;20703;-61
2024/02/11 13:47:42;;;;;;;2.83;2.13;;;;;;;14.67;57.47;98924.97;10394231;28;20268;-62
2024/02/11 13:52:42;;;;;;;3.65;2.40;;;;;;;14.67;58.60;98924.97;10408980;28;20017;-61
2024/02/11 13:57:43;;;;;;;3.67;2.63;;;;;;;14.68;58.66;98929.22;10407309;28;20025;-61
2024/02/11 14:02:44;;;;;;;3.42;2.38;;;;;;;14.65;57.87;98933.28;10407719;28;20408;-61
2024/02/11 14:07:44;;;;;;;4.18;2.60;;;;;;;14.65;58.03;98927.94;10407548;28;20060;-61
2024/02/11 14:12:44;;;;;;;3.80;2.33;;;;;;;14.66;58.44;98942.84;10373727;28;20040;-61
2024/02/11 14:17:46;;;;;;;4.17;1.83;;;;;;;14.66;58.00;98939.41;10367411;28;20025;-62
2024/02/11 14:22:47;;;;;;;5.75;2.88;;;;;;;14.64;58.13;98947.72;10366215;28;20275;-62
2024/02/11 14:27:48;;;;;;;3.50;2.20;;;;;;;14.63;58.39;98944.28;10366747;28;20042;-61
2024/02/11 14:32:48;;;;;;;4.90;2.35;;;;;;;14.66;58.77;98964.19;10367600;28;20022;-61
2024/02/11 14:37:49;;;;;;;3.35;2.10;;;;;;;14.65;57.97;98967.19;10366533;28;20030;-61
2024/02/11 14:42:50;;;;;;;2.87;1.90;;;;;;;14.64;58.05;98969.06;10367311;28;20177;-62
2024/02/11 14:47:51;;;;;;;3.15;1.98;;;;;;;14.65;58.80;98975.19;10366426;28;20283;-61
2024/02/11 14:52:51;;;;;;;4.55;2.50;;;;;;;14.64;58.77;98974.41;10366614;28;20037;-62
2024/02/11 14:57:53;;;;;;;4.78;2.38;;;;;;;14.63;57.99;98975.50;10365266;28;20463;-62
2024/02/11 15:02:53;;;;;;;4.07;2.78;;;;;;;14.63;58.74;98983.50;10365344;28;20013;-61
2024/02/11 15:07:55;;;;;;;4.78;2.22;;;;;;;14.62;57.96;98992.59;10372513;28;20053;-61
2024/02/11 15:12:57;;;;;;;4.40;2.40;;;;;;;14.61;58.10;98983.81;10372540;28;20038;-62
2024/02/11 15:17:57;;;;;;;5.35;2.47;;;;;;;14.61;58.76;98991.81;10366234;28;20485;-61
2024/02/11 15:22:57;;;;;;;5.95;2.90;;;;;;;14.61;58.21;98999.03;10366459;28;20052;-61
2024/02/11 15:27:58;;;;;;;3.97;2.53;;;;;;;14.59;58.44;99006.56;10374083;28;20104;-61
2024/02/11 15:32:59;;;;;;;6.47;2.88;;;;;;;14.60;58.03;99013.47;10399257;28;20140;-61
2024/02/11 15:37:59;;;;;;;3.28;2.22;;;;;;;14.60;58.35;99018.81;10414235;28;20021;-61
2024/02/11 15:43:00;;;;;;;4.10;2.37;;;;;;;14.58;58.40;99019.13;10413406;28;20050;-61
2024/02/11 15:48:00;;;;;;;5.67;2.70;;;;;;;14.58;58.68;99027.13;10413851;28;20683;-61
2024/02/11 15:53:01;;;;;;;4.73;2.90;;;;;;;14.57;58.39;99025.56;10412205;28;20298;-61
2024/02/11 15:58:01;;;;;;;3.17;2.40;;;;;;;14.57;57.67;99038.88;10412264;28;20311;-61
2024/02/11 16:03:02;;;;;;;4.43;2.65;;;;;;;14.57;57.88;99040.75;10412801;28;20100;-62
2024/02/11 16:08:04;;;;;;;6.40;3.00;;;;;;;14.56;58.25;99047.97;10413386;28;20099;-62
2024/02/11 16:13:06;;;;;;;3.22;1.92;;;;;;;14.56;57.73;99041.84;10376974;28;20960;-61
2024/02/11 16:18:07;;;;;;;4.65;2.75;;;;;;;14.55;57.42;99051.72;10370500;28;20030;-61
2024/02/11 16:23:08;;;;;;;4.82;2.25;;;;;;;14.56;58.13;99061.31;10371678;28;20448;-61
2024/02/11 16:28:08;;;;;;;3.95;2.22;;;;;;;14.55;58.74;99058.94;10371545;28;20026;-61
2024/02/11 16:33:09;;;;;;;3.10;2.47;;;;;;;14.54;58.24;99065.38;10371194;28;20477;-61
2024/02/11 16:38:09;;;;;;;5.22;2.50;;;;;;;14.54;58.35;99068.03;10370243;28;20346;-62
2024/02/11 16:43:09;;;;;;;2.90;2.20;;;;;;;14.54;58.17;99074.16;10369248;28;20026;-61
2024/02/11 16:48:11;;;;;;;3.97;2.20;;;;;;;14.53;58.16;99072.59;10370428;28;20800;-61
2024/02/11 16:53:11;;;;;;;4.57;2.95;;;;;;;14.52;57.74;99089.69;10369352;28;20927;-62
2024/02/11 16:58:12;;;;;;;2.53;1.83;;;;;;;14.52;57.61;99087.00;10368802;28;20026;-61
2024/02/11 17:03:13;;;;;;;4.03;2.20;;;;;;;14.51;57.83;99088.09;10370123;28;20831;-62
2024/02/11 17:08:13;;;;;;;3.78;2.42;;;;;;;14.51;58.19;99090.78;10378468;28;20315;-62
2024/02/11 17:13:14;;;;;;;3.65;2.65;;;;;;;14.50;57.82;99094.53;10373046;28;20046;-61
2024/02/11 17:18:14;;;;;;;3.50;2.65;;;;;;;14.50;58.30;99105.22;10368837;28;20027;-62
2024/02/11 17:23:18;;;;;;;4.17;2.40;;;;;;;14.49;58.32;99106.31;10379857;28;20033;-61
2024/02/11 17:28:18;;;;;;;4.85;2.72;;;;;;;14.50;57.89;99117.75;10407347;28;20280;-61
2024/02/11 17:33:22;;;;;;;3.85;2.72;;;;;;;14.49;58.23;99124.97;10378879;28;20022;-61
2024/02/11 17:38:25;;;;;;;4.63;2.30;;;;;;;14.48;58.04;99128.72;10367245;28;20113;-62
2024/02/11 17:43:26;;;;;;;4.70;2.83;;;;;;;14.47;57.91;99135.16;10366829;28;20026;-61
2024/02/11 17:48:26;;;;;;;4.93;3.00;;;;;;;14.48;57.97;99141.28;10365676;28;20041;-61
2024/02/11 17:53:27;;;;;;;4.03;2.92;;;;;;;14.45;58.10;99148.00;10365971;28;20640;-61
2024/02/11 17:58:28;;;;;;;5.45;3.47;;;;;;;14.45;57.78;99158.69;10358389;28;20029;-61
2024/02/11 18:03:32;;;;;;;4.20;3.28;;;;;;;14.45;58.38;99164.03;10365772;28;20109;-61
2024/02/11 18:08:33;;;;;;;4.20;3.20;;;;;;;14.45;57.80;99169.34;10376952;28;20423;-61
2024/02/11 18:13:33;;;;;;;4.95;2.95;;;;;;;14.45;57.57;99165.91;10363824;28;20032;-61
2024/02/11 18:18:34;;;;;;;6.07;4.10;;;;;;;14.44;57.78;99170.41;10363225;28;20028;-61
2024/02/11 18:23:35;;;;;;;4.63;3.33;;;;;;;14.43;57.04;99179.47;10365062;28;20287;-61
2024/02/11 18:28:38;;;;;;;4.78;3.42;;;;;;;14.44;57.74;99180.25;10364951;28;20473;-62
2024/02/11 18:33:39;;;;;;;5.45;3.60;;;;;;;14.43;58.11;99184.03;10364346;28;20116;-62
2024/02/11 18:38:40;;;;;;;5.35;4.22;;;;;;;14.43;58.22;99179.47;10364883;28;20033;-61
2024/02/11 18:43:41;;;;;;;6.20;3.28;;;;;;;14.43;58.03;99192.81;10364552;28;20021;-61
2024/02/11 18:48:41;;;;;;;4.90;3.30;;;;;;;14.42;57.79;99196.56;10363294;28;20369;-62
2024/02/11 18:53:41;;;;;;;4.10;3.20;;;;;;;14.41;58.20;99202.22;10363609;28;20281;-61
2024/02/11 18:58:43;;;;;;;4.35;3.20;;;;;;;14.41;57.67;99215.53;10366236;28;20273;-61
2024/02/11 19:03:43;;;;;;;4.85;3.10;;;;;;;14.40;58.41;99217.44;10372415;28;20033;-62
2024/02/11 19:08:45;;;;;;;4.10;2.70;;;;;;;14.40;58.03;99213.97;10385002;28;20045;-61
2024/02/11 19:13:46;;;;;;;5.38;3.45;;;;;;;14.39;57.68;99231.84;10413029;28;20287;-61
2024/02/11 19:18:47;;;;;;;5.30;3.22;;;;;;;14.39;57.75;99223.06;10411573;28;20564;-61
2024/02/11 19:23:47;;;;;;;3.80;2.80;;;;;;;14.38;57.63;99222.28;10411612;28;20026;-61
2024/02/11 19:28:48;;;;;;;4.80;3.25;;;;;;;14.37;57.54;99220.72;10411553;28;20465;-61
2024/02/11 19:33:48;;;;;;;4.77;3.47;;;;;;;14.37;57.77;99233.25;10381026;28;20088;-61
2024/02/11 19:38:48;;;;;;;4.82;3.67;;;;;;;14.37;57.36;99250.03;10371278;28;20331;-61
2024/02/11 19:43:49;;;;;;;3.87;3.30;;;;;;;14.35;57.82;99244.22;10370119;28;20117;-62
2024/02/11 19:48:49;;;;;;;7.53;4.10;;;;;;;14.36;58.17;99245.00;10370723;28;20291;-61
2024/02/11 19:53:49;;;;;;;5.07;3.70;;;;;;;14.34;57.42;99256.78;10369000;28;20293;-61
2024/02/11 19:58:51;;;;;;;5.17;4.20;;;;;;;14.34;58.09;99258.66;10369551;28;20277;-61
2024/02/11 20:03:51;;;;;;;4.53;3.35;;;;;;;14.34;57.28;99263.97;10370468;28;20414;-61
2024/02/11 20:08:52;;;;;;;6.38;3.42;;;;;;;14.33;57.91;99276.53;10383207;28;20091;-61
2024/02/11 20:13:54;;;;;;;5.33;3.50;;;;;;;14.33;57.64;99284.53;10381581;28;20022;-62
2024/02/11 20:18:54;;;;;;;4.93;3.70;;;;;;;14.32;57.63;99282.13;10369902;28;20289;-61
2024/02/11 20:23:56;;;;;;;6.13;3.90;;;;;;;14.32;58.02;99293.63;10369785;28;20022;-61
2024/02/11 20:28:57;;;;;;;5.53;3.53;;;;;;;14.31;58.17;99291.22;10369215;28;20288;-61
2024/02/11 20:33:58;;;;;;;4.70;3.40;;;;;;;14.31;57.58;99296.56;10369549;28;20029;-61
2024/02/11 20:38:58;;;;;;;4.15;3.30;;;;;;;14.30;57.39;99308.31;10377213;28;20393;-61
2024/02/11 20:43:58;;;;;;;5.53;4.00;;;;;;;14.30;57.82;99309.09;10394783;28;20037;-61
2024/02/11 20:48:59;;;;;;;4.80;3.80;;;;;;;14.29;57.40;99323.53;10372403;28;20042;-60
2024/02/11 20:54:00;;;;;;;5.07;3.57;;;;;;;14.29;57.74;99336.06;10367959;28;20620;-61
2024/02/11 20:59:00;;;;;;;5.20;4.10;;;;;;;14.29;57.79;99333.41;10366867;28;20367;-60
2024/02/11 21:04:02;;;;;;;4.25;3.83;;;;;;;14.28;58.16;99329.94;10367561;28;20030;-61
2024/02/11 21:09:02;;;;;;;4.85;3.50;;;;;;;14.28;57.54;99335.28;10379550;28;20059;-61
2024/02/11 21:14:08;;;;;;;3.92;3.33;;;;;;;14.27;58.10;99335.59;10367042;28;20036;-61
2024/02/11 21:19:10;;;;;;;4.60;3.88;;;;;;;14.27;57.71;99346.25;10367261;28;20022;-61
2024/02/11 21:24:10;;;;;;;4.72;3.20;;;;;;;14.26;57.63;99348.13;10372670;28;20270;-61
2024/02/11 21:29:12;;;;;;;5.20;3.75;;;;;;;14.25;58.16;99351.88;10394372;28;20025;-61
2024/02/11 21:34:12;;;;;;;5.25;2.88;;;;;;;14.26;57.77;99361.47;10398454;28;20463;-61
2024/02/11 21:39:14;;;;;;;4.77;3.87;;;;;;;14.25;57.53;99365.22;10366488;28;20033;-61
2024/02/11 21:44:18;;;;;;;5.50;3.75;;;;;;;14.25;58.27;99367.09;10378340;28;20280;-61
2024/02/11 21:49:19;;;;;;;4.13;3.13;;;;;;;14.25;57.79;99372.41;10393398;28;20108;-61
2024/02/11 21:54:19;;;;;;;5.57;3.78;;;;;;;14.24;57.63;99376.97;10405319;28;20120;-61
2024/02/11 21:59:21;;;;;;;5.13;3.60;;;;;;;14.24;57.65;99376.19;10389784;28;20493;-61
2024/02/11 22:04:21;;;;;;;5.00;3.20;;;;;;;14.22;57.70;99386.34;10365617;28;20371;-61
2024/02/11 22:09:22;;;;;;;5.17;3.53;;;;;;;14.23;57.62;99393.25;10384079;28;20049;-60
2024/02/11 22:14:22;;;;;;;5.35;3.53;;;;;;;14.22;58.28;99397.81;10372377;28;20277;-61
2024/02/11 22:19:22;;;;;;;4.30;3.37;;;;;;;14.21;58.12;99401.56;10365427;28;20022;-61
2024/02/11 22:24:23;;;;;;;4.57;3.35;;;;;;;14.21;58.15;99403.44;10363645;28;20277;-61
2024/02/11 22:29:23;;;;;;;4.60;3.03;;;;;;;14.20;57.84;99409.84;10373033;28;20029;-61
2024/02/11 22:34:24;;;;;;;4.70;2.60;;;;;;;14.20;58.36;99409.84;10369467;28;20107;-61
2024/02/11 22:39:24;;;;;;;3.50;2.70;;;;;;;14.19;57.79;99413.59;10378228;28;20672;-60
2024/02/11 22:44:28;;;;;;;3.93;3.00;;;;;;;14.20;57.63;99421.28;10361233;28;20478;-61
2024/02/11 22:49:28;;;;;;;3.90;2.83;;;;;;;14.18;58.33;99418.13;10363228;28;20300;-61
2024/02/11 22:54:28;;;;;;;4.72;3.45;;;;;;;14.18;57.89;99420.00;10364382;28;20374;-61
2024/02/11 22:59:29;;;;;;;4.43;3.17;;;;;;;14.17;57.66;99423.75;10363167;28;20536;-61
2024/02/11 23:04:29;;;;;;;3.90;2.90;;;;;;;14.17;58.01;99426.44;10364904;28;20284;-61
2024/02/11 23:09:30;;;;;;;3.87;2.80;;;;;;;14.16;58.04;99441.63;10376428;28;20088;-61
2024/02/11 23:14:31;;;;;;;3.63;2.63;;;;;;;14.15;58.00;99445.38;10363195;28;20844;-61
2024/02/11 23:19:32;;;;;;;4.32;3.10;;;;;;;14.15;58.62;99449.94;10390917;28;20037;-61